sensor_id;sensor_type;location;lat;lon;timestamp;temperature;humidity
51029;DHT22;37054;52.054;8.600;2023-04-01T00:01:00;15.30;66.00
51029;DHT22;37054;52.054;8.600;2023-04-01T00:03:26;15.30;66.20
51029;DHT22;37054;52.054;8.600;2023-04-01T00:05:52;15.30;66.00
51029;DHT22;37054;52.054;8.600;2023-04-01T00:08:18;15.40;65.90
51029;DHT22;37054;52.054;8.600;2023-04-01T00:10:43;15.40;66.00
51029;DHT22;37054;52.054;8.600;2023-04-01T00:13:09;15.40;65.80
51029;DHT22;37054;52.054;8.600;2023-04-01T00:15:34;15.40;65.70
51029;DHT22;37054;52.054;8.600;2023-04-01T00:18:00;15.40;65.80
51029;DHT22;37054;52.054;8.600;2023-04-01T00:20:26;15.40;65.70
51029;DHT22;37054;52.054;8.600;2023-04-01T00:22:51;15.40;65.80
51029;DHT22;37054;52.054;8.600;2023-04-01T00:25:17;15.40;65.70
51029;DHT22;37054;52.054;8.600;2023-04-01T00:27:43;15.40;65.80
51029;DHT22;37054;52.054;8.600;2023-04-01T00:30:09;15.30;65.90
51029;DHT22;37054;52.054;8.600;2023-04-01T00:32:35;15.30;65.80
51029;DHT22;37054;52.054;8.600;2023-04-01T00:35:01;15.30;65.80
51029;DHT22;37054;52.054;8.600;2023-04-01T00:37:27;15.30;65.90
51029;DHT22;37054;52.054;8.600;2023-04-01T00:39:52;15.20;65.90
51029;DHT22;37054;52.054;8.600;2023-04-01T00:42:18;15.20;65.90
51029;DHT22;37054;52.054;8.600;2023-04-01T00:44:51;15.20;65.90
51029;DHT22;37054;52.054;8.600;2023-04-01T00:47:16;15.20;65.90
51029;DHT22;37054;52.054;8.600;2023-04-01T00:49:43;15.20;66.00
51029;DHT22;37054;52.054;8.600;2023-04-01T00:52:11;15.20;66.00
51029;DHT22;37054;52.054;8.600;2023-04-01T00:54:37;15.10;66.10
51029;DHT22;37054;52.054;8.600;2023-04-01T00:57:12;15.10;66.10
51029;DHT22;37054;52.054;8.600;2023-04-01T00:59:45;15.10;66.00
51029;DHT22;37054;52.054;8.600;2023-04-01T01:02:12;15.10;66.00
51029;DHT22;37054;52.054;8.600;2023-04-01T01:04:38;15.10;65.90
51029;DHT22;37054;52.054;8.600;2023-04-01T01:09:38;15.20;65.90
51029;DHT22;37054;52.054;8.600;2023-04-01T01:12:08;15.10;66.00
51029;DHT22;37054;52.054;8.600;2023-04-01T01:17:23;15.10;65.90
51029;DHT22;37054;52.054;8.600;2023-04-01T01:20:00;15.20;65.90
51029;DHT22;37054;52.054;8.600;2023-04-01T01:22:39;15.20;65.90
51029;DHT22;37054;52.054;8.600;2023-04-01T01:27:35;15.20;66.00
51029;DHT22;37054;52.054;8.600;2023-04-01T01:37:51;15.10;66.00
51029;DHT22;37054;52.054;8.600;2023-04-01T01:40:19;15.10;66.00
51029;DHT22;37054;52.054;8.600;2023-04-01T01:42:47;15.10;65.90
51029;DHT22;37054;52.054;8.600;2023-04-01T01:45:14;15.10;65.90
51029;DHT22;37054;52.054;8.600;2023-04-01T01:47:42;15.20;65.90
51029;DHT22;37054;52.054;8.600;2023-04-01T01:50:09;15.20;65.90
51029;DHT22;37054;52.054;8.600;2023-04-01T01:52:34;15.10;65.90
51029;DHT22;37054;52.054;8.600;2023-04-01T01:55:00;15.20;65.80
51029;DHT22;37054;52.054;8.600;2023-04-01T01:57:30;15.20;65.80
51029;DHT22;37054;52.054;8.600;2023-04-01T01:59:58;15.20;65.80
51029;DHT22;37054;52.054;8.600;2023-04-01T02:02:24;15.10;65.90
51029;DHT22;37054;52.054;8.600;2023-04-01T02:04:50;15.10;65.90
51029;DHT22;37054;52.054;8.600;2023-04-01T02:07:21;15.10;65.90
51029;DHT22;37054;52.054;8.600;2023-04-01T02:09:48;15.10;66.00
51029;DHT22;37054;52.054;8.600;2023-04-01T02:12:14;15.00;65.80
51029;DHT22;37054;52.054;8.600;2023-04-01T02:14:50;15.10;65.80
51029;DHT22;37054;52.054;8.600;2023-04-01T02:17:18;15.00;65.80
51029;DHT22;37054;52.054;8.600;2023-04-01T02:19:48;15.00;65.80
51029;DHT22;37054;52.054;8.600;2023-04-01T02:22:16;14.90;65.70
51029;DHT22;37054;52.054;8.600;2023-04-01T02:24:43;15.00;65.70
51029;DHT22;37054;52.054;8.600;2023-04-01T02:27:10;15.00;65.70
51029;DHT22;37054;52.054;8.600;2023-04-01T02:29:36;14.90;65.80
51029;DHT22;37054;52.054;8.600;2023-04-01T02:32:02;14.90;65.90
51029;DHT22;37054;52.054;8.600;2023-04-01T02:34:27;14.90;65.90
51029;DHT22;37054;52.054;8.600;2023-04-01T02:36:53;14.90;65.90
51029;DHT22;37054;52.054;8.600;2023-04-01T02:39:20;14.90;66.00
51029;DHT22;37054;52.054;8.600;2023-04-01T02:41:45;14.90;65.90
51029;DHT22;37054;52.054;8.600;2023-04-01T02:44:12;14.90;65.90
51029;DHT22;37054;52.054;8.600;2023-04-01T02:46:37;14.90;65.90
51029;DHT22;37054;52.054;8.600;2023-04-01T02:49:03;14.80;66.00
51029;DHT22;37054;52.054;8.600;2023-04-01T02:51:28;14.90;66.00
51029;DHT22;37054;52.054;8.600;2023-04-01T02:53:54;14.80;66.00
51029;DHT22;37054;52.054;8.600;2023-04-01T02:56:19;14.80;66.00
51029;DHT22;37054;52.054;8.600;2023-04-01T02:58:45;14.80;66.00
51029;DHT22;37054;52.054;8.600;2023-04-01T03:01:11;14.80;66.10
51029;DHT22;37054;52.054;8.600;2023-04-01T03:03:36;14.80;66.10
51029;DHT22;37054;52.054;8.600;2023-04-01T03:06:06;14.80;66.00
51029;DHT22;37054;52.054;8.600;2023-04-01T03:08:31;14.80;66.00
51029;DHT22;37054;52.054;8.600;2023-04-01T03:10:57;14.90;66.10
51029;DHT22;37054;52.054;8.600;2023-04-01T03:13:22;14.90;65.90
51029;DHT22;37054;52.054;8.600;2023-04-01T03:15:48;14.90;65.80
51029;DHT22;37054;52.054;8.600;2023-04-01T03:18:13;14.90;65.90
51029;DHT22;37054;52.054;8.600;2023-04-01T03:20:38;14.90;65.90
51029;DHT22;37054;52.054;8.600;2023-04-01T03:23:04;14.80;65.80
51029;DHT22;37054;52.054;8.600;2023-04-01T03:25:30;14.80;65.90
51029;DHT22;37054;52.054;8.600;2023-04-01T03:27:55;14.80;65.90
51029;DHT22;37054;52.054;8.600;2023-04-01T03:30:21;14.80;66.00
51029;DHT22;37054;52.054;8.600;2023-04-01T03:32:46;14.80;66.00
51029;DHT22;37054;52.054;8.600;2023-04-01T03:35:12;14.90;66.00
51029;DHT22;37054;52.054;8.600;2023-04-01T03:37:37;14.80;66.00
51029;DHT22;37054;52.054;8.600;2023-04-01T03:40:03;14.80;65.90
51029;DHT22;37054;52.054;8.600;2023-04-01T03:42:29;14.80;65.80
51029;DHT22;37054;52.054;8.600;2023-04-01T03:44:56;14.80;66.00
51029;DHT22;37054;52.054;8.600;2023-04-01T03:47:21;14.80;66.00
51029;DHT22;37054;52.054;8.600;2023-04-01T03:49:47;14.90;65.90
51029;DHT22;37054;52.054;8.600;2023-04-01T03:52:12;14.90;65.80
51029;DHT22;37054;52.054;8.600;2023-04-01T03:54:38;14.90;65.90
51029;DHT22;37054;52.054;8.600;2023-04-01T03:57:03;14.80;65.90
51029;DHT22;37054;52.054;8.600;2023-04-01T03:59:29;14.80;65.80
51029;DHT22;37054;52.054;8.600;2023-04-01T04:01:54;14.90;65.90
51029;DHT22;37054;52.054;8.600;2023-04-01T04:04:20;14.80;65.90
51029;DHT22;37054;52.054;8.600;2023-04-01T04:06:45;14.90;65.90
51029;DHT22;37054;52.054;8.600;2023-04-01T04:09:11;14.80;65.80
51029;DHT22;37054;52.054;8.600;2023-04-01T04:11:36;14.80;65.80
51029;DHT22;37054;52.054;8.600;2023-04-01T04:14:02;14.80;65.80
51029;DHT22;37054;52.054;8.600;2023-04-01T04:16:27;14.80;65.80
51029;DHT22;37054;52.054;8.600;2023-04-01T04:18:52;14.90;65.80
51029;DHT22;37054;52.054;8.600;2023-04-01T04:21:18;14.80;65.80
51029;DHT22;37054;52.054;8.600;2023-04-01T04:23:43;14.90;65.80
51029;DHT22;37054;52.054;8.600;2023-04-01T04:26:10;14.90;65.80
51029;DHT22;37054;52.054;8.600;2023-04-01T04:28:36;14.90;65.80
51029;DHT22;37054;52.054;8.600;2023-04-01T04:31:01;14.90;65.70
51029;DHT22;37054;52.054;8.600;2023-04-01T04:33:27;14.80;65.80
51029;DHT22;37054;52.054;8.600;2023-04-01T04:35:54;14.80;65.80
51029;DHT22;37054;52.054;8.600;2023-04-01T04:38:20;14.90;65.80
51029;DHT22;37054;52.054;8.600;2023-04-01T04:40:46;14.90;65.80
51029;DHT22;37054;52.054;8.600;2023-04-01T04:43:11;14.90;65.80
51029;DHT22;37054;52.054;8.600;2023-04-01T04:45:37;14.80;65.80
51029;DHT22;37054;52.054;8.600;2023-04-01T04:48:02;14.90;65.70
51029;DHT22;37054;52.054;8.600;2023-04-01T04:50:28;14.90;65.70
51029;DHT22;37054;52.054;8.600;2023-04-01T04:52:53;14.90;65.70
51029;DHT22;37054;52.054;8.600;2023-04-01T04:55:19;14.90;65.60
51029;DHT22;37054;52.054;8.600;2023-04-01T04:57:44;14.90;65.60
51029;DHT22;37054;52.054;8.600;2023-04-01T05:00:10;14.80;65.60
51029;DHT22;37054;52.054;8.600;2023-04-01T05:02:36;14.80;65.60
51029;DHT22;37054;52.054;8.600;2023-04-01T05:05:02;14.80;65.60
51029;DHT22;37054;52.054;8.600;2023-04-01T05:07:27;14.80;65.50
51029;DHT22;37054;52.054;8.600;2023-04-01T05:09:53;14.80;65.60
51029;DHT22;37054;52.054;8.600;2023-04-01T05:12:18;14.80;65.60
51029;DHT22;37054;52.054;8.600;2023-04-01T05:14:44;14.70;65.60
51029;DHT22;37054;52.054;8.600;2023-04-01T05:17:10;14.70;65.70
51029;DHT22;37054;52.054;8.600;2023-04-01T05:19:35;14.70;65.80
51029;DHT22;37054;52.054;8.600;2023-04-01T05:22:01;14.70;65.70
51029;DHT22;37054;52.054;8.600;2023-04-01T05:24:26;14.70;65.80
51029;DHT22;37054;52.054;8.600;2023-04-01T05:26:52;14.70;65.80
51029;DHT22;37054;52.054;8.600;2023-04-01T05:29:17;14.70;65.80
51029;DHT22;37054;52.054;8.600;2023-04-01T05:31:42;14.70;65.80
51029;DHT22;37054;52.054;8.600;2023-04-01T05:34:08;14.70;65.80
51029;DHT22;37054;52.054;8.600;2023-04-01T05:36:33;14.80;65.80
51029;DHT22;37054;52.054;8.600;2023-04-01T05:38:59;14.70;65.90
51029;DHT22;37054;52.054;8.600;2023-04-01T05:41:25;14.70;65.90
51029;DHT22;37054;52.054;8.600;2023-04-01T05:43:52;14.70;66.00
51029;DHT22;37054;52.054;8.600;2023-04-01T05:46:17;14.70;65.90
51029;DHT22;37054;52.054;8.600;2023-04-01T05:48:43;14.70;66.00
51029;DHT22;37054;52.054;8.600;2023-04-01T05:51:12;14.70;65.80
51029;DHT22;37054;52.054;8.600;2023-04-01T05:53:38;14.80;65.90
51029;DHT22;37054;52.054;8.600;2023-04-01T05:56:03;14.80;65.80
51029;DHT22;37054;52.054;8.600;2023-04-01T05:58:29;14.80;65.80
51029;DHT22;37054;52.054;8.600;2023-04-01T06:01:05;14.80;65.90
51029;DHT22;37054;52.054;8.600;2023-04-01T06:03:32;14.80;65.70
51029;DHT22;37054;52.054;8.600;2023-04-01T06:05:57;14.80;65.80
51029;DHT22;37054;52.054;8.600;2023-04-01T06:08:23;14.80;65.80
51029;DHT22;37054;52.054;8.600;2023-04-01T06:15:59;14.90;65.80
51029;DHT22;37054;52.054;8.600;2023-04-01T06:21:04;14.90;65.90
51029;DHT22;37054;52.054;8.600;2023-04-01T06:23:41;14.90;65.90
51029;DHT22;37054;52.054;8.600;2023-04-01T06:26:14;14.90;66.10
51029;DHT22;37054;52.054;8.600;2023-04-01T06:28:57;15.00;66.20
51029;DHT22;37054;52.054;8.600;2023-04-01T06:34:10;15.20;66.20
51029;DHT22;37054;52.054;8.600;2023-04-01T06:39:17;15.30;66.30
51029;DHT22;37054;52.054;8.600;2023-04-01T06:47:09;15.50;66.60
51029;DHT22;37054;52.054;8.600;2023-04-01T06:54:47;15.90;66.60
51029;DHT22;37054;52.054;8.600;2023-04-01T06:57:20;16.00;66.60
51029;DHT22;37054;52.054;8.600;2023-04-01T06:59:46;16.10;66.50
51029;DHT22;37054;52.054;8.600;2023-04-01T07:04:43;16.30;65.90
51029;DHT22;37054;52.054;8.600;2023-04-01T07:09:55;16.10;65.50
51029;DHT22;37054;52.054;8.600;2023-04-01T07:15:03;16.00;65.60
51029;DHT22;37054;52.054;8.600;2023-04-01T07:17:30;16.00;65.70
51029;DHT22;37054;52.054;8.600;2023-04-01T07:22:44;15.80;65.50
51029;DHT22;37054;52.054;8.600;2023-04-01T07:25:24;15.70;65.50
51029;DHT22;37054;52.054;8.600;2023-04-01T07:27:52;15.70;65.70
51029;DHT22;37054;52.054;8.600;2023-04-01T07:30:19;15.70;65.80
51029;DHT22;37054;52.054;8.600;2023-04-01T07:32:50;15.60;65.70
51029;DHT22;37054;52.054;8.600;2023-04-01T07:35:22;15.60;65.70
51029;DHT22;37054;52.054;8.600;2023-04-01T07:43:04;15.50;65.60
51029;DHT22;37054;52.054;8.600;2023-04-01T07:45:47;15.50;65.60
51029;DHT22;37054;52.054;8.600;2023-04-01T07:48:22;15.50;65.80
51029;DHT22;37054;52.054;8.600;2023-04-01T07:50:53;15.60;66.00
51029;DHT22;37054;52.054;8.600;2023-04-01T07:53:23;15.60;66.00
51029;DHT22;37054;52.054;8.600;2023-04-01T08:05:55;15.70;66.10
51029;DHT22;37054;52.054;8.600;2023-04-01T08:13:36;15.80;66.20
51029;DHT22;37054;52.054;8.600;2023-04-01T08:21:16;16.00;66.60
51029;DHT22;37054;52.054;8.600;2023-04-01T08:23:46;16.00;66.50
51029;DHT22;37054;52.054;8.600;2023-04-01T08:28:44;16.20;66.50
51029;DHT22;37054;52.054;8.600;2023-04-01T08:33:56;16.40;66.60
51029;DHT22;37054;52.054;8.600;2023-04-01T08:36:27;16.50;66.60
51029;DHT22;37054;52.054;8.600;2023-04-01T08:38:55;16.60;66.50
51029;DHT22;37054;52.054;8.600;2023-04-01T08:41:26;16.70;66.40
51029;DHT22;37054;52.054;8.600;2023-04-01T08:49:04;17.00;67.00
51029;DHT22;37054;52.054;8.600;2023-04-01T08:54:26;17.40;66.80
51029;DHT22;37054;52.054;8.600;2023-04-01T09:12:39;18.20;66.20
51029;DHT22;37054;52.054;8.600;2023-04-01T09:30:58;19.60;67.40
51029;DHT22;37054;52.054;8.600;2023-04-01T09:38:42;20.50;66.00
51029;DHT22;37054;52.054;8.600;2023-04-01T09:41:32;20.70;66.40
51029;DHT22;37054;52.054;8.600;2023-04-01T09:55:10;21.20;64.50
51029;DHT22;37054;52.054;8.600;2023-04-01T09:57:22;21.10;64.60
51029;DHT22;37054;52.054;8.600;2023-04-01T10:02:34;21.20;64.90
51029;DHT22;37054;52.054;8.600;2023-04-01T10:16:39;20.70;63.80
51029;DHT22;37054;52.054;8.600;2023-04-01T10:24:12;20.00;64.30
51029;DHT22;37054;52.054;8.600;2023-04-01T10:26:54;19.80;64.80
51029;DHT22;37054;52.054;8.600;2023-04-01T10:51:04;19.60;66.50
51029;DHT22;37054;52.054;8.600;2023-04-01T10:53:43;19.70;65.90
51029;DHT22;37054;52.054;8.600;2023-04-01T10:56:32;19.80;65.70
51029;DHT22;37054;52.054;8.600;2023-04-01T11:07:30;20.50;65.90
51029;DHT22;37054;52.054;8.600;2023-04-01T11:23:12;20.30;63.60
51029;DHT22;37054;52.054;8.600;2023-04-01T11:30:53;19.80;64.40
51029;DHT22;37054;52.054;8.600;2023-04-01T11:33:37;19.70;65.10
51029;DHT22;37054;52.054;8.600;2023-04-01T11:36:06;19.70;65.10
51029;DHT22;37054;52.054;8.600;2023-04-01T11:38:49;19.70;65.50
51029;DHT22;37054;52.054;8.600;2023-04-01T11:41:27;19.70;65.70
51029;DHT22;37054;52.054;8.600;2023-04-01T11:46:23;19.80;66.00
51029;DHT22;37054;52.054;8.600;2023-04-01T11:49:02;19.80;66.00
51029;DHT22;37054;52.054;8.600;2023-04-01T11:59:56;20.00;66.20
51029;DHT22;37054;52.054;8.600;2023-04-01T12:05:18;20.30;65.80
51029;DHT22;37054;52.054;8.600;2023-04-01T12:08:00;20.40;65.90
51029;DHT22;37054;52.054;8.600;2023-04-01T12:18:12;21.10;65.40
51029;DHT22;37054;52.054;8.600;2023-04-01T12:23:26;21.30;65.40
51029;DHT22;37054;52.054;8.600;2023-04-01T12:31:38;21.50;64.80
51029;DHT22;37054;52.054;8.600;2023-04-01T12:36:57;21.50;64.30
51029;DHT22;37054;52.054;8.600;2023-04-01T12:42:07;21.80;64.90
51029;DHT22;37054;52.054;8.600;2023-04-01T12:52:20;22.20;64.90
51029;DHT22;37054;52.054;8.600;2023-04-01T12:55:02;22.20;64.50
51029;DHT22;37054;52.054;8.600;2023-04-01T12:57:43;22.20;64.00
51029;DHT22;37054;52.054;8.600;2023-04-01T13:10:38;21.70;64.10
51029;DHT22;37054;52.054;8.600;2023-04-01T13:18:21;21.20;64.20
51029;DHT22;37054;52.054;8.600;2023-04-01T13:20:54;21.10;64.70
51029;DHT22;37054;52.054;8.600;2023-04-01T13:25:57;20.90;64.40
51029;DHT22;37054;52.054;8.600;2023-04-01T13:28:24;20.80;63.70
51029;DHT22;37054;52.054;8.600;2023-04-01T13:30:59;20.70;64.40
51029;DHT22;37054;52.054;8.600;2023-04-01T13:33:29;20.70;64.30
51029;DHT22;37054;52.054;8.600;2023-04-01T13:36:05;20.60;64.10
51029;DHT22;37054;52.054;8.600;2023-04-01T13:41:05;20.40;64.70
51029;DHT22;37054;52.054;8.600;2023-04-01T13:43:37;20.40;64.60
51029;DHT22;37054;52.054;8.600;2023-04-01T13:48:42;20.30;64.60
51029;DHT22;37054;52.054;8.600;2023-04-01T13:56:32;20.20;64.30
51029;DHT22;37054;52.054;8.600;2023-04-01T13:59:02;20.10;64.50
51029;DHT22;37054;52.054;8.600;2023-04-01T14:12:09;19.80;65.70
51029;DHT22;37054;52.054;8.600;2023-04-01T14:15:00;19.80;65.60
51029;DHT22;37054;52.054;8.600;2023-04-01T14:20:22;19.70;65.40
51029;DHT22;37054;52.054;8.600;2023-04-01T14:28:01;19.20;65.50
51029;DHT22;37054;52.054;8.600;2023-04-01T14:30:36;19.20;65.90
51029;DHT22;37054;52.054;8.600;2023-04-01T14:35:37;19.20;66.40
51029;DHT22;37054;52.054;8.600;2023-04-01T14:38:12;19.20;66.60
51029;DHT22;37054;52.054;8.600;2023-04-01T14:40:48;19.20;66.70
51029;DHT22;37054;52.054;8.600;2023-04-01T14:50:55;19.00;66.40
51029;DHT22;37054;52.054;8.600;2023-04-01T14:53:36;18.90;66.30
51029;DHT22;37054;52.054;8.600;2023-04-01T14:56:04;18.80;65.80
51029;DHT22;37054;52.054;8.600;2023-04-01T14:58:41;18.70;65.70
51029;DHT22;37054;52.054;8.600;2023-04-01T15:01:12;18.60;66.00
51029;DHT22;37054;52.054;8.600;2023-04-01T15:03:48;18.50;66.50
51029;DHT22;37054;52.054;8.600;2023-04-01T15:09:02;18.50;66.80
51029;DHT22;37054;52.054;8.600;2023-04-01T15:14:23;18.60;66.10
51029;DHT22;37054;52.054;8.600;2023-04-01T15:25:04;18.50;66.60
51029;DHT22;37054;52.054;8.600;2023-04-01T15:27:37;18.50;66.60
51029;DHT22;37054;52.054;8.600;2023-04-01T15:37:55;18.40;66.00
51029;DHT22;37054;52.054;8.600;2023-04-01T15:40:27;18.30;66.00
51029;DHT22;37054;52.054;8.600;2023-04-01T15:43:07;18.30;66.00
51029;DHT22;37054;52.054;8.600;2023-04-01T15:48:14;18.00;65.80
51029;DHT22;37054;52.054;8.600;2023-04-01T15:50:51;17.90;66.00
51029;DHT22;37054;52.054;8.600;2023-04-01T15:53:22;17.80;65.80
51029;DHT22;37054;52.054;8.600;2023-04-01T15:56:11;17.70;65.50
51029;DHT22;37054;52.054;8.600;2023-04-01T16:01:19;17.40;65.40
51029;DHT22;37054;52.054;8.600;2023-04-01T16:03:57;17.30;65.60
51029;DHT22;37054;52.054;8.600;2023-04-01T16:06:32;17.20;65.50
51029;DHT22;37054;52.054;8.600;2023-04-01T16:09:12;17.20;65.90
51029;DHT22;37054;52.054;8.600;2023-04-01T16:19:30;17.00;66.30
51029;DHT22;37054;52.054;8.600;2023-04-01T16:21:58;17.00;66.40
51029;DHT22;37054;52.054;8.600;2023-04-01T16:27:33;17.00;66.00
51029;DHT22;37054;52.054;8.600;2023-04-01T16:32:49;16.90;66.30
51029;DHT22;37054;52.054;8.600;2023-04-01T16:37:54;16.90;66.60
51029;DHT22;37054;52.054;8.600;2023-04-01T16:40:25;17.00;66.70
51029;DHT22;37054;52.054;8.600;2023-04-01T16:48:13;17.00;66.90
51029;DHT22;37054;52.054;8.600;2023-04-01T16:50:41;17.00;66.90
51029;DHT22;37054;52.054;8.600;2023-04-01T16:55:50;17.00;66.80
51029;DHT22;37054;52.054;8.600;2023-04-01T16:58:20;17.00;66.60
51029;DHT22;37054;52.054;8.600;2023-04-01T17:00:48;17.00;66.40
51029;DHT22;37054;52.054;8.600;2023-04-01T17:03:28;17.00;66.30
51029;DHT22;37054;52.054;8.600;2023-04-01T17:06:12;17.00;66.20
51029;DHT22;37054;52.054;8.600;2023-04-01T17:08:49;16.90;65.80
51029;DHT22;37054;52.054;8.600;2023-04-01T17:11:19;16.80;65.70
51029;DHT22;37054;52.054;8.600;2023-04-01T17:16:24;16.40;65.00
51029;DHT22;37054;52.054;8.600;2023-04-01T17:19:08;16.30;65.00
51029;DHT22;37054;52.054;8.600;2023-04-01T17:26:50;15.90;65.30
51029;DHT22;37054;52.054;8.600;2023-04-01T17:34:34;15.60;65.30
51029;DHT22;37054;52.054;8.600;2023-04-01T17:37:22;15.50;65.40
51029;DHT22;37054;52.054;8.600;2023-04-01T17:42:34;15.40;65.40
51029;DHT22;37054;52.054;8.600;2023-04-01T17:50:18;15.10;65.60
51029;DHT22;37054;52.054;8.600;2023-04-01T17:58:03;15.00;65.50
51029;DHT22;37054;52.054;8.600;2023-04-01T18:00:33;15.00;65.70
51029;DHT22;37054;52.054;8.600;2023-04-01T18:03:06;14.90;65.70
51029;DHT22;37054;52.054;8.600;2023-04-01T18:08:11;14.90;65.70
51029;DHT22;37054;52.054;8.600;2023-04-01T18:10:40;14.80;65.70
51029;DHT22;37054;52.054;8.600;2023-04-01T18:15:55;14.80;65.80
51029;DHT22;37054;52.054;8.600;2023-04-01T18:19:09;14.70;65.80
51029;DHT22;37054;52.054;8.600;2023-04-01T18:21:18;14.70;65.70
51029;DHT22;37054;52.054;8.600;2023-04-01T18:24:02;14.70;65.70
51029;DHT22;37054;52.054;8.600;2023-04-01T18:26:32;14.70;65.60
51029;DHT22;37054;52.054;8.600;2023-04-01T18:31:32;14.50;65.90
51029;DHT22;37054;52.054;8.600;2023-04-01T18:34:02;14.50;65.70
51029;DHT22;37054;52.054;8.600;2023-04-01T18:36:39;14.50;65.60
51029;DHT22;37054;52.054;8.600;2023-04-01T18:39:22;14.40;65.70
51029;DHT22;37054;52.054;8.600;2023-04-01T18:41:53;14.40;65.60
51029;DHT22;37054;52.054;8.600;2023-04-01T18:52:21;14.20;65.60
51029;DHT22;37054;52.054;8.600;2023-04-01T18:57:25;14.20;65.60
51029;DHT22;37054;52.054;8.600;2023-04-01T18:59:57;14.10;65.60
51029;DHT22;37054;52.054;8.600;2023-04-01T19:02:32;14.00;65.60
51029;DHT22;37054;52.054;8.600;2023-04-01T19:05:03;14.00;65.60
51029;DHT22;37054;52.054;8.600;2023-04-01T19:07:48;14.00;65.70
51029;DHT22;37054;52.054;8.600;2023-04-01T19:13:03;13.80;65.60
51029;DHT22;37054;52.054;8.600;2023-04-01T19:15:34;13.80;65.60
51029;DHT22;37054;52.054;8.600;2023-04-01T19:20:53;13.80;65.70
51029;DHT22;37054;52.054;8.600;2023-04-01T19:25:57;13.70;65.60
51029;DHT22;37054;52.054;8.600;2023-04-01T19:28:43;13.70;65.60
51029;DHT22;37054;52.054;8.600;2023-04-01T19:34:01;13.50;65.50
51029;DHT22;37054;52.054;8.600;2023-04-01T19:44:54;13.40;65.70
51029;DHT22;37054;52.054;8.600;2023-04-01T19:52:52;13.30;65.70
51029;DHT22;37054;52.054;8.600;2023-04-01T19:55:31;13.20;65.60
51029;DHT22;37054;52.054;8.600;2023-04-01T20:00:50;13.20;65.60
51029;DHT22;37054;52.054;8.600;2023-04-01T20:08:11;13.10;65.40
51029;DHT22;37054;52.054;8.600;2023-04-01T20:10:43;13.10;65.50
51029;DHT22;37054;52.054;8.600;2023-04-01T20:13:34;13.10;65.50
51029;DHT22;37054;52.054;8.600;2023-04-01T20:16:03;13.10;65.30
51029;DHT22;37054;52.054;8.600;2023-04-01T20:18:34;13.00;65.40
51029;DHT22;37054;52.054;8.600;2023-04-01T20:21:16;13.10;65.40
51029;DHT22;37054;52.054;8.600;2023-04-01T20:23:59;13.00;65.50
51029;DHT22;37054;52.054;8.600;2023-04-01T20:26:37;13.00;65.40
51029;DHT22;37054;52.054;8.600;2023-04-01T20:31:44;13.00;65.30
51029;DHT22;37054;52.054;8.600;2023-04-01T20:34:18;13.00;65.30
51029;DHT22;37054;52.054;8.600;2023-04-01T20:39:24;13.10;65.20
51029;DHT22;37054;52.054;8.600;2023-04-01T20:49:49;12.90;65.10
51029;DHT22;37054;52.054;8.600;2023-04-01T20:52:25;12.90;65.00
51029;DHT22;37054;52.054;8.600;2023-04-01T21:02:57;12.80;64.70
51029;DHT22;37054;52.054;8.600;2023-04-01T21:05:33;12.80;64.70
51029;DHT22;37054;52.054;8.600;2023-04-01T21:15:46;12.70;64.60
51029;DHT22;37054;52.054;8.600;2023-04-01T21:20:49;12.60;64.60
51029;DHT22;37054;52.054;8.600;2023-04-01T21:23:29;12.50;64.50
51029;DHT22;37054;52.054;8.600;2023-04-01T21:31:00;12.40;64.40
51029;DHT22;37054;52.054;8.600;2023-04-01T21:36:03;12.30;64.50
51029;DHT22;37054;52.054;8.600;2023-04-01T21:38:42;12.20;64.60
51029;DHT22;37054;52.054;8.600;2023-04-01T21:43:44;12.10;64.60
51029;DHT22;37054;52.054;8.600;2023-04-01T21:48:53;12.00;64.60
51029;DHT22;37054;52.054;8.600;2023-04-01T22:04:41;11.80;65.10
51029;DHT22;37054;52.054;8.600;2023-04-01T22:07:11;11.70;65.00
51029;DHT22;37054;52.054;8.600;2023-04-01T22:09:58;11.70;64.90
51029;DHT22;37054;52.054;8.600;2023-04-01T22:12:35;11.70;64.80
51029;DHT22;37054;52.054;8.600;2023-04-01T22:17:37;11.60;64.60
51029;DHT22;37054;52.054;8.600;2023-04-01T22:28:27;11.40;64.50
51029;DHT22;37054;52.054;8.600;2023-04-01T22:31:03;11.40;64.50
51029;DHT22;37054;52.054;8.600;2023-04-01T22:38:46;11.20;64.70
51029;DHT22;37054;52.054;8.600;2023-04-01T22:41:25;11.30;64.60
51029;DHT22;37054;52.054;8.600;2023-04-01T22:43:54;11.20;64.80
51029;DHT22;37054;52.054;8.600;2023-04-01T22:46:26;11.20;64.70
51029;DHT22;37054;52.054;8.600;2023-04-01T22:49:02;11.30;64.70
51029;DHT22;37054;52.054;8.600;2023-04-01T22:54:31;11.20;64.70
51029;DHT22;37054;52.054;8.600;2023-04-01T22:57:07;11.20;64.70
51029;DHT22;37054;52.054;8.600;2023-04-01T22:59:37;11.20;64.90
51029;DHT22;37054;52.054;8.600;2023-04-01T23:02:39;11.30;64.80
51029;DHT22;37054;52.054;8.600;2023-04-01T23:04:59;11.30;64.70
51029;DHT22;37054;52.054;8.600;2023-04-01T23:10:02;11.20;64.70
51029;DHT22;37054;52.054;8.600;2023-04-01T23:12:30;11.20;64.60
51029;DHT22;37054;52.054;8.600;2023-04-01T23:14:58;11.20;64.40
51029;DHT22;37054;52.054;8.600;2023-04-01T23:17:36;11.10;64.40
51029;DHT22;37054;52.054;8.600;2023-04-01T23:20:21;11.00;64.40
51029;DHT22;37054;52.054;8.600;2023-04-01T23:23:00;11.10;64.40
51029;DHT22;37054;52.054;8.600;2023-04-01T23:33:09;10.90;64.50
51029;DHT22;37054;52.054;8.600;2023-04-01T23:35:40;10.90;64.40
51029;DHT22;37054;52.054;8.600;2023-04-01T23:38:11;10.80;64.20
51029;DHT22;37054;52.054;8.600;2023-04-01T23:40:36;10.80;64.20
51029;DHT22;37054;52.054;8.600;2023-04-01T23:43:02;10.80;64.20
51029;DHT22;37054;52.054;8.600;2023-04-01T23:45:37;10.80;64.10
51029;DHT22;37054;52.054;8.600;2023-04-01T23:48:02;10.70;64.10
51029;DHT22;37054;52.054;8.600;2023-04-01T23:50:28;10.70;64.00
51029;DHT22;37054;52.054;8.600;2023-04-01T23:52:57;10.70;64.00
51029;DHT22;37054;52.054;8.600;2023-04-01T23:55:27;10.70;64.00
